Time;durP1;ratioP1;P1;durP2;ratioP2;P2;SDS_P1;SDS_P2;PMS_P1;PMS_P2;Temp;Humidity;BMP_temperature;BMP_pressure;BME280_temperature;BME280_humidity;BME280_pressure;Samples;Min_cycle;Max_cycle;Signal;HPM_P1;HPM_P2
2023/08/06 00:01:25;;;;;;;3.20;1.90;;;;;;;12.81;100.00;93296.94;4988658;28;20069;-61
2023/08/06 00:03:52;;;;;;;4.15;2.00;;;;;;;12.79;100.00;93295.38;4987701;28;20388;-65
2023/08/06 00:06:19;;;;;;;4.03;2.00;;;;;;;12.71;100.00;93298.84;4989403;28;20562;-61
2023/08/06 00:08:46;;;;;;;3.83;1.80;;;;;;;12.60;100.00;93304.69;4988725;28;20047;-61
2023/08/06 00:11:13;;;;;;;4.45;2.22;;;;;;;12.56;100.00;93295.78;4988150;28;20205;-66
2023/08/06 00:13:40;;;;;;;3.73;2.03;;;;;;;12.48;100.00;93302.75;4987399;28;20072;-61
2023/08/06 00:16:11;;;;;;;39.85;26.52;;;;;;;12.28;100.00;93301.00;4969584;28;20051;-67
2023/08/06 00:18:38;;;;;;;6.45;4.18;;;;;;;12.20;100.00;93310.69;4977746;28;20105;-62
2023/08/06 00:21:05;;;;;;;4.10;2.20;;;;;;;12.03;100.00;93314.75;4989254;28;20044;-62
2023/08/06 00:23:32;;;;;;;4.13;1.85;;;;;;;12.02;100.00;93311.25;4989281;28;20384;-67
2023/08/06 00:25:59;;;;;;;3.83;1.77;;;;;;;11.92;100.00;93307.59;5001582;28;20429;-60
2023/08/06 00:28:25;;;;;;;3.40;1.95;;;;;;;11.90;100.00;93314.75;5009061;28;20394;-61
2023/08/06 00:30:54;;;;;;;3.50;1.95;;;;;;;11.82;100.00;93303.16;5010817;28;20050;-67
2023/08/06 00:33:24;;;;;;;4.60;2.00;;;;;;;11.71;100.00;93309.00;5008365;28;20124;-61
2023/08/06 00:35:51;;;;;;;3.67;2.10;;;;;;;11.74;100.00;93313.59;5006947;28;20052;-61
2023/08/06 00:38:18;;;;;;;3.47;2.20;;;;;;;11.70;100.00;93304.69;5007289;28;20045;-61
2023/08/06 00:40:44;;;;;;;3.65;2.03;;;;;;;11.79;100.00;93298.53;5008133;28;20042;-64
2023/08/06 00:43:11;;;;;;;4.50;2.30;;;;;;;11.89;100.00;93283.75;5006440;28;20041;-60
2023/08/06 00:45:38;;;;;;;4.35;2.20;;;;;;;12.02;100.00;93286.50;4991618;28;20058;-63
2023/08/06 00:48:06;;;;;;;3.65;2.13;;;;;;;12.23;100.00;93292.53;4989194;28;20061;-60
2023/08/06 00:50:33;;;;;;;4.30;2.17;;;;;;;12.28;100.00;93290.00;4988942;28;20468;-61
2023/08/06 00:53:01;;;;;;;5.20;2.22;;;;;;;12.46;100.00;93291.41;5009391;28;20050;-62
2023/08/06 00:55:29;;;;;;;4.95;2.20;;;;;;;12.51;100.00;93290.84;5012721;28;20395;-61
2023/08/06 00:57:56;;;;;;;5.18;2.03;;;;;;;12.57;100.00;93286.31;5011649;28;20067;-62
2023/08/06 01:00:24;;;;;;;4.72;2.15;;;;;;;12.68;100.00;93295.00;5011442;28;20087;-64
2023/08/06 01:02:52;;;;;;;5.87;2.37;;;;;;;12.71;100.00;93285.06;5010803;28;20042;-61
2023/08/06 01:05:20;;;;;;;3.80;2.30;;;;;;;12.82;100.00;93287.44;5012512;28;20049;-65
2023/08/06 01:08:09;;;;;;;4.00;2.10;;;;;;;12.90;100.00;93292.28;5012023;28;20050;-64
2023/08/06 01:10:57;;;;;;;4.75;2.10;;;;;;;12.93;100.00;93294.13;5011915;28;20518;-61
2023/08/06 01:13:32;;;;;;;3.65;2.00;;;;;;;13.09;100.00;93286.94;5012034;28;20050;-62
2023/08/06 01:16:01;;;;;;;3.40;2.03;;;;;;;13.05;100.00;93273.28;4993637;28;20050;-61
2023/08/06 01:18:28;;;;;;;4.93;2.30;;;;;;;12.75;100.00;93275.47;4999406;28;20521;-62
2023/08/06 01:20:56;;;;;;;4.88;2.25;;;;;;;12.68;100.00;93278.47;5011669;28;20052;-61
2023/08/06 01:23:24;;;;;;;4.75;2.42;;;;;;;12.68;100.00;93275.72;5010766;28;20053;-66
2023/08/06 01:26:12;;;;;;;4.38;2.08;;;;;;;12.86;100.00;93260.56;5011263;28;20433;-65
2023/08/06 01:29:18;;;;;;;3.60;1.93;;;;;;;12.93;100.00;93254.81;5010309;28;20057;-61
2023/08/06 01:31:48;;;;;;;5.05;2.20;;;;;;;12.92;100.00;93250.53;5010028;28;20689;-66
2023/08/06 01:34:22;;;;;;;3.60;2.20;;;;;;;12.79;100.00;93242.31;5012127;28;20060;-68
2023/08/06 01:36:51;;;;;;;4.53;2.10;;;;;;;12.75;100.00;93255.44;5011335;28;20056;-61
2023/08/06 01:39:20;;;;;;;3.90;2.20;;;;;;;12.72;100.00;93250.84;5012278;28;20505;-61
2023/08/06 01:41:48;;;;;;;4.63;2.20;;;;;;;12.66;100.00;93242.38;5010035;28;20057;-62
2023/08/06 01:44:16;;;;;;;4.07;2.35;;;;;;;12.58;100.00;93241.06;5010496;28;20126;-68
2023/08/06 01:46:42;;;;;;;16.20;9.18;;;;;;;12.44;100.00;93238.81;5011093;28;20053;-67
2023/08/06 01:49:09;;;;;;;8.07;4.28;;;;;;;12.34;100.00;93235.19;5020029;28;20034;-61
2023/08/06 01:51:36;;;;;;;5.07;2.40;;;;;;;11.95;100.00;93234.44;4991636;28;20050;-61
2023/08/06 01:54:03;;;;;;;4.33;2.10;;;;;;;11.92;100.00;93232.59;4996630;28;20123;-62
2023/08/06 01:56:30;;;;;;;4.47;2.13;;;;;;;11.89;100.00;93227.97;5011960;28;20042;-61
2023/08/06 01:58:56;;;;;;;4.95;2.13;;;;;;;11.82;100.00;93225.44;5010835;28;20042;-61
2023/08/06 02:01:23;;;;;;;4.13;2.10;;;;;;;11.73;100.00;93226.84;5011827;28;20046;-61
2023/08/06 02:03:50;;;;;;;3.92;2.10;;;;;;;11.74;100.00;93222.13;5009399;28;20046;-63
2023/08/06 02:06:16;;;;;;;4.53;2.40;;;;;;;11.70;100.00;93213.97;5011663;28;20545;-62
2023/08/06 02:08:43;;;;;;;4.20;2.22;;;;;;;11.62;100.00;93218.16;5026072;28;20041;-73
2023/08/06 02:11:10;;;;;;;4.10;2.40;;;;;;;11.54;100.00;93231.34;5011602;28;20414;-66
2023/08/06 02:13:37;;;;;;;4.70;2.10;;;;;;;11.37;100.00;93229.91;5009248;28;20085;-61
2023/08/06 02:16:06;;;;;;;4.60;1.98;;;;;;;11.35;100.00;93235.06;4974165;28;20114;-62
2023/08/06 02:18:33;;;;;;;5.13;2.10;;;;;;;11.28;100.00;93233.28;4998214;28;20050;-61
2023/08/06 02:21:00;;;;;;;3.58;1.70;;;;;;;11.24;100.00;93232.63;4990260;28;20729;-68
2023/08/06 02:23:27;;;;;;;3.47;1.77;;;;;;;11.13;100.00;93238.44;4991557;28;20042;-62
2023/08/06 02:26:02;;;;;;;4.38;2.00;;;;;;;11.07;100.00;93234.69;4990827;28;20050;-62
2023/08/06 02:28:29;;;;;;;5.72;1.90;;;;;;;11.00;100.00;93230.13;4991659;28;20056;-61
2023/08/06 02:30:56;;;;;;;4.10;1.93;;;;;;;11.10;100.00;93228.31;4990852;28;20046;-61
2023/08/06 02:33:23;;;;;;;3.88;1.92;;;;;;;11.11;100.00;93234.59;4991654;28;20484;-61
2023/08/06 02:35:50;;;;;;;5.82;1.75;;;;;;;11.11;100.00;93237.31;4990547;28;20431;-61
2023/08/06 02:38:17;;;;;;;4.47;2.20;;;;;;;11.03;100.00;93233.22;4991340;28;20727;-65
2023/08/06 02:40:45;;;;;;;4.35;2.05;;;;;;;10.89;100.00;93229.69;4973272;28;20419;-62
2023/08/06 02:43:13;;;;;;;4.53;1.90;;;;;;;10.95;100.00;93227.19;4991167;28;20053;-68
2023/08/06 02:45:39;;;;;;;4.93;2.08;;;;;;;11.17;100.00;93219.09;4990815;28;20467;-65
2023/08/06 02:48:06;;;;;;;3.90;2.10;;;;;;;11.32;100.00;93225.72;4990868;28;20050;-61
2023/08/06 02:50:42;;;;;;;3.47;1.90;;;;;;;11.41;100.00;93225.06;4990983;28;20555;-62
2023/08/06 02:53:09;;;;;;;6.38;2.80;;;;;;;11.50;100.00;93210.69;4995415;28;20382;-66
2023/08/06 02:55:36;;;;;;;4.57;2.20;;;;;;;11.52;100.00;93209.03;4990705;28;20038;-62
2023/08/06 02:58:02;;;;;;;6.00;2.20;;;;;;;11.57;100.00;93213.22;4990532;28;20042;-62
2023/08/06 03:00:29;;;;;;;4.95;2.13;;;;;;;11.30;100.00;93211.63;4990957;28;20051;-61
2023/08/06 03:02:56;;;;;;;4.85;2.15;;;;;;;11.39;100.00;93205.50;4989994;28;20049;-62
2023/08/06 03:05:23;;;;;;;5.07;2.40;;;;;;;11.56;100.00;93206.19;4989759;28;20386;-61
2023/08/06 03:07:49;;;;;;;5.23;2.20;;;;;;;11.51;100.00;93191.00;4990263;28;20046;-67
2023/08/06 03:10:16;;;;;;;6.90;2.10;;;;;;;11.68;100.00;93193.66;5005894;28;20061;-63
2023/08/06 03:12:43;;;;;;;4.53;2.30;;;;;;;11.76;100.00;93192.97;4990127;28;20042;-61
2023/08/06 03:15:10;;;;;;;6.72;2.35;;;;;;;11.73;100.00;93196.63;4990381;28;20046;-61
2023/08/06 03:17:36;;;;;;;5.50;2.38;;;;;;;11.57;100.00;93192.00;4990201;28;20504;-62
2023/08/06 03:20:04;;;;;;;3.50;1.90;;;;;;;11.66;100.00;93190.56;4988976;28;20046;-61
2023/08/06 03:22:31;;;;;;;4.85;2.03;;;;;;;11.72;100.00;93188.81;4990441;28;20074;-62
2023/08/06 03:24:57;;;;;;;5.05;2.38;;;;;;;11.74;100.00;93195.41;4989403;28;20042;-68
2023/08/06 03:27:24;;;;;;;5.35;2.20;;;;;;;11.74;100.00;93183.63;4990424;28;20042;-61
2023/08/06 03:29:51;;;;;;;4.45;2.15;;;;;;;11.67;100.00;93184.66;4988525;28;20054;-61
2023/08/06 03:32:17;;;;;;;5.27;2.10;;;;;;;11.78;100.00;93182.31;4990250;28;20726;-61
2023/08/06 03:34:44;;;;;;;4.03;1.92;;;;;;;11.83;100.00;93182.97;4989718;28;20129;-64
2023/08/06 03:37:11;;;;;;;5.18;2.30;;;;;;;11.94;100.00;93195.19;4990216;28;20034;-62
2023/08/06 03:39:38;;;;;;;5.38;1.98;;;;;;;12.04;100.00;93190.56;4988165;28;20399;-65
2023/08/06 03:42:05;;;;;;;5.40;1.98;;;;;;;12.11;100.00;93192.31;4973361;28;20035;-61
2023/08/06 03:44:32;;;;;;;4.30;2.30;;;;;;;12.13;100.00;93195.38;4981321;28;20050;-61
2023/08/06 03:46:58;;;;;;;7.43;2.45;;;;;;;12.24;100.00;93195.81;4989391;28;20047;-64
2023/08/06 03:49:25;;;;;;;5.90;2.38;;;;;;;12.29;100.00;93189.72;4997064;28;20069;-61
2023/08/06 03:51:52;;;;;;;6.35;2.30;;;;;;;12.05;100.00;93197.59;4976421;28;20049;-68
2023/08/06 03:54:19;;;;;;;6.18;1.85;;;;;;;11.94;100.00;93206.19;4990079;28;20056;-66
2023/08/06 03:56:46;;;;;;;5.70;2.40;;;;;;;11.83;100.00;93208.50;4989164;28;20060;-61
2023/08/06 03:59:13;;;;;;;4.22;1.90;;;;;;;11.69;100.00;93203.41;4988352;28;20073;-62
2023/08/06 04:01:39;;;;;;;6.13;2.15;;;;;;;11.76;100.00;93212.22;4988051;28;20055;-61
2023/08/06 04:04:06;;;;;;;4.25;1.85;;;;;;;11.84;100.00;93212.78;4989635;28;20049;-66
2023/08/06 04:06:33;;;;;;;4.75;1.70;;;;;;;11.82;100.00;93215.19;4989630;28;20124;-64
2023/08/06 04:09:00;;;;;;;3.83;1.87;;;;;;;11.80;100.00;93214.88;4989154;28;20038;-61
2023/08/06 04:11:26;;;;;;;4.90;1.80;;;;;;;11.92;100.00;93225.09;4989566;28;20053;-61
2023/08/06 04:13:54;;;;;;;3.78;1.80;;;;;;;11.88;100.00;93220.91;4988921;28;20466;-66
2023/08/06 04:16:21;;;;;;;3.80;1.63;;;;;;;11.88;100.00;93226.41;4989681;28;20042;-63
2023/08/06 04:18:48;;;;;;;3.28;1.58;;;;;;;12.01;100.00;93218.94;4989018;28;20048;-68
2023/08/06 04:21:15;;;;;;;4.10;1.57;;;;;;;11.96;100.00;93209.25;4989443;28;20487;-62
2023/08/06 04:23:42;;;;;;;3.42;1.58;;;;;;;11.85;100.00;93217.06;4975770;28;20054;-61
2023/08/06 04:26:08;;;;;;;3.65;1.30;;;;;;;11.91;100.00;93204.34;4989300;28;20652;-62
2023/08/06 04:28:35;;;;;;;3.35;1.30;;;;;;;11.88;100.00;93204.41;4988192;28;20050;-62
2023/08/06 04:31:02;;;;;;;3.05;1.48;;;;;;;11.94;100.00;93202.69;4989282;28;20049;-62
2023/08/06 04:33:28;;;;;;;3.10;1.20;;;;;;;11.86;100.00;93185.59;4989462;28;20399;-65
2023/08/06 04:35:56;;;;;;;3.10;1.40;;;;;;;11.78;100.00;93181.53;4987574;28;20042;-61
2023/08/06 04:38:26;;;;;;;2.25;1.13;;;;;;;11.87;100.00;93194.63;4989422;28;20043;-61
2023/08/06 04:40:53;;;;;;;2.53;1.20;;;;;;;11.90;100.00;93194.53;4980122;28;20045;-70
2023/08/06 04:43:20;;;;;;;2.33;1.20;;;;;;;11.90;100.00;93199.28;4970987;28;20055;-61
2023/08/06 04:45:51;;;;;;;3.07;1.20;;;;;;;11.82;100.00;93201.44;4987862;28;20065;-62
2023/08/06 04:48:17;;;;;;;2.88;1.10;;;;;;;11.97;100.00;93199.81;4989024;28;20044;-61
2023/08/06 04:50:45;;;;;;;2.90;0.90;;;;;;;12.05;100.00;93194.84;4988879;28;20415;-61
2023/08/06 04:53:12;;;;;;;2.58;1.00;;;;;;;11.94;100.00;93188.94;4989186;28;20051;-61
2023/08/06 04:55:39;;;;;;;3.55;1.25;;;;;;;11.96;100.00;93194.75;4987306;28;20042;-62
2023/08/06 04:58:06;;;;;;;2.97;1.00;;;;;;;12.08;100.00;93195.94;4988865;28;20038;-68
2023/08/06 05:00:33;;;;;;;2.83;1.10;;;;;;;12.12;100.00;93197.38;4989073;28;20060;-61
2023/08/06 05:03:03;;;;;;;2.45;1.05;;;;;;;12.07;100.00;93197.16;5007789;28;21397;-66
2023/08/06 05:05:30;;;;;;;3.75;1.05;;;;;;;11.99;100.00;93191.91;5008742;28;20068;-62
2023/08/06 05:07:57;;;;;;;2.85;1.15;;;;;;;11.95;100.00;93196.75;5007055;28;20069;-65
2023/08/06 05:10:25;;;;;;;2.50;1.10;;;;;;;11.95;100.00;93188.50;5008718;28;20042;-61
2023/08/06 05:12:53;;;;;;;2.33;1.20;;;;;;;11.95;100.00;93190.44;5008189;28;20072;-61
2023/08/06 05:15:19;;;;;;;2.45;1.30;;;;;;;12.06;100.00;93192.88;5008525;28;20050;-62
2023/08/06 05:17:46;;;;;;;2.53;1.00;;;;;;;11.98;100.00;93195.09;5007658;28;20392;-62
2023/08/06 05:20:13;;;;;;;3.30;1.20;;;;;;;11.89;100.00;93189.47;5007051;28;20064;-67
2023/08/06 05:22:40;;;;;;;3.33;0.90;;;;;;;11.91;100.00;93195.31;5007718;28;20046;-62
2023/08/06 05:25:07;;;;;;;2.70;0.90;;;;;;;12.03;100.00;93186.25;5008344;28;20060;-62
2023/08/06 05:27:34;;;;;;;3.30;1.30;;;;;;;11.95;100.00;93194.00;5008426;28;20111;-62
2023/08/06 05:30:01;;;;;;;2.00;0.88;;;;;;;11.82;100.00;93195.19;4975249;28;20520;-61
2023/08/06 05:32:27;;;;;;;2.80;0.90;;;;;;;12.02;100.00;93194.97;4988796;28;20069;-66
2023/08/06 05:34:54;;;;;;;2.87;0.90;;;;;;;12.18;100.00;93198.34;4975591;28;20050;-61
2023/08/06 05:37:21;;;;;;;2.42;0.90;;;;;;;12.24;100.00;93203.28;4988850;28;20085;-68
2023/08/06 05:39:48;;;;;;;2.45;1.10;;;;;;;12.38;100.00;93211.84;4991118;28;20034;-62
2023/08/06 05:42:14;;;;;;;2.25;0.80;;;;;;;12.30;100.00;93210.53;4992291;28;20419;-61
2023/08/06 05:44:41;;;;;;;2.30;0.95;;;;;;;12.41;100.00;93229.44;4991827;28;20367;-62
2023/08/06 05:47:08;;;;;;;1.97;0.80;;;;;;;12.37;100.00;93224.06;4992361;28;20046;-63
2023/08/06 05:49:35;;;;;;;2.50;0.85;;;;;;;12.30;100.00;93224.28;5019930;28;20048;-61
2023/08/06 05:52:02;;;;;;;2.67;0.90;;;;;;;12.10;100.00;93221.78;4991893;28;20068;-61
2023/08/06 05:54:29;;;;;;;2.67;0.90;;;;;;;11.89;100.00;93223.25;4992385;28;20042;-61
2023/08/06 05:56:56;;;;;;;1.98;0.80;;;;;;;11.94;100.00;93230.94;4991627;28;20041;-61
2023/08/06 05:59:23;;;;;;;3.13;0.97;;;;;;;12.11;100.00;93228.06;4991949;28;20051;-62
2023/08/06 06:01:49;;;;;;;2.58;0.80;;;;;;;12.20;100.00;93236.41;4991682;28;20403;-65
2023/08/06 06:04:16;;;;;;;4.22;0.80;;;;;;;12.32;100.00;93235.63;4974365;28;20239;-62
2023/08/06 06:06:44;;;;;;;1.80;0.70;;;;;;;12.21;100.00;93226.19;4990830;28;20411;-66
2023/08/06 06:09:11;;;;;;;3.42;1.00;;;;;;;12.30;100.00;93220.78;4991839;28;20407;-61
2023/08/06 06:11:38;;;;;;;3.13;0.80;;;;;;;12.54;100.00;93226.66;4989939;28;20046;-61
2023/08/06 06:14:04;;;;;;;3.42;0.63;;;;;;;12.56;100.00;93229.75;4991535;28;20077;-68
2023/08/06 06:16:31;;;;;;;1.70;0.68;;;;;;;12.46;100.00;93226.13;4991831;28;20050;-66
2023/08/06 06:18:58;;;;;;;2.22;0.75;;;;;;;12.35;100.00;93229.25;4990973;28;20046;-72
2023/08/06 06:21:24;;;;;;;2.10;0.70;;;;;;;12.73;100.00;93228.34;4991762;28;20054;-61
2023/08/06 06:23:51;;;;;;;2.30;0.70;;;;;;;12.74;100.00;93223.63;5004722;28;20482;-61
2023/08/06 06:26:18;;;;;;;2.00;0.70;;;;;;;12.81;100.00;93226.13;4999328;28;20058;-63
2023/08/06 06:28:45;;;;;;;1.83;0.70;;;;;;;12.53;100.00;93230.63;4991175;28;20458;-68
2023/08/06 06:31:12;;;;;;;2.50;0.70;;;;;;;12.53;100.00;93239.63;4991635;28;20041;-64
2023/08/06 06:33:38;;;;;;;1.77;0.60;;;;;;;12.40;100.00;93227.91;4990836;28;20046;-62
2023/08/06 06:36:07;;;;;;;2.10;0.80;;;;;;;12.42;100.00;93236.50;4991335;28;20378;-61
2023/08/06 06:38:34;;;;;;;1.52;0.60;;;;;;;12.37;100.00;93240.56;4991273;28;20054;-61
2023/08/06 06:41:03;;;;;;;1.60;0.70;;;;;;;12.45;100.00;93243.84;5001767;28;21624;-62
2023/08/06 06:43:30;;;;;;;1.77;0.80;;;;;;;12.45;100.00;93254.84;5010977;28;20049;-61
2023/08/06 06:45:58;;;;;;;1.50;0.70;;;;;;;12.38;100.00;93255.84;5010450;28;20042;-65
2023/08/06 06:48:29;;;;;;;2.63;0.80;;;;;;;12.53;100.00;93260.88;5010545;28;20049;-67
2023/08/06 06:50:56;;;;;;;2.28;0.75;;;;;;;12.65;100.00;93257.31;5009714;28;20042;-61
2023/08/06 06:53:32;;;;;;;1.85;0.60;;;;;;;12.67;100.00;93254.13;5009073;28;20041;-62
2023/08/06 06:56:04;;;;;;;1.50;0.65;;;;;;;12.52;100.00;93262.13;4992200;28;20433;-61
2023/08/06 06:58:31;;;;;;;2.38;0.65;;;;;;;12.51;100.00;93257.81;4991142;28;20051;-61
2023/08/06 07:00:58;;;;;;;1.97;0.60;;;;;;;12.52;100.00;93264.88;4990362;28;20073;-61
2023/08/06 07:03:25;;;;;;;1.83;0.60;;;;;;;12.52;100.00;93270.38;4979601;28;20707;-68
2023/08/06 07:05:51;;;;;;;2.03;0.70;;;;;;;12.67;100.00;93271.41;4971073;28;20216;-64
2023/08/06 07:08:18;;;;;;;2.00;0.70;;;;;;;12.95;100.00;93285.44;4988809;28;20507;-62
2023/08/06 07:10:45;;;;;;;1.48;0.57;;;;;;;12.78;100.00;93279.34;4990188;28;20408;-68
2023/08/06 07:13:12;;;;;;;1.60;0.70;;;;;;;12.70;100.00;93280.78;4990514;28;20048;-61
2023/08/06 07:15:39;;;;;;;2.20;0.50;;;;;;;12.59;100.00;93275.63;4990285;28;20051;-62
2023/08/06 07:18:05;;;;;;;1.40;0.57;;;;;;;12.97;100.00;93274.75;4989980;28;20044;-66
2023/08/06 07:20:34;;;;;;;1.75;0.60;;;;;;;13.28;100.00;93288.63;4989125;28;20100;-63
2023/08/06 07:23:01;;;;;;;1.38;0.50;;;;;;;13.17;100.00;93280.72;5008834;28;20763;-66
2023/08/06 07:25:27;;;;;;;1.40;0.50;;;;;;;13.27;100.00;93280.78;5010068;28;20123;-62
2023/08/06 07:27:56;;;;;;;1.73;0.40;;;;;;;12.88;100.00;93291.19;5009113;28;20060;-61
2023/08/06 07:30:23;;;;;;;1.55;0.40;;;;;;;13.06;100.00;93298.81;5008561;28;20056;-61
2023/08/06 07:32:50;;;;;;;1.40;0.40;;;;;;;13.49;100.00;93289.84;5009570;28;20042;-61
2023/08/06 07:35:17;;;;;;;1.70;0.63;;;;;;;13.36;100.00;93292.69;5008228;28;20057;-66
2023/08/06 07:37:43;;;;;;;1.40;0.47;;;;;;;12.85;100.00;93289.31;5009526;28;20067;-63
2023/08/06 07:40:10;;;;;;;1.67;0.50;;;;;;;12.92;100.00;93291.84;5009196;28;20042;-62
2023/08/06 07:42:37;;;;;;;1.50;0.40;;;;;;;12.58;100.00;93285.13;5009493;28;20119;-62
2023/08/06 07:45:05;;;;;;;1.40;0.50;;;;;;;12.44;100.00;93291.09;5009539;28;20457;-61
2023/08/06 07:47:31;;;;;;;2.10;0.65;;;;;;;12.58;100.00;93283.13;5009799;28;20385;-61
2023/08/06 07:49:59;;;;;;;1.40;0.60;;;;;;;12.93;100.00;93285.88;5007942;28;20073;-68
2023/08/06 07:52:26;;;;;;;1.60;0.50;;;;;;;12.91;100.00;93293.81;5009367;28;20045;-65
2023/08/06 07:54:53;;;;;;;2.38;0.70;;;;;;;12.89;100.00;93295.47;5008977;28;20060;-62
2023/08/06 07:57:19;;;;;;;1.73;0.40;;;;;;;12.69;100.00;93298.50;5009295;28;20056;-62
2023/08/06 07:59:46;;;;;;;1.50;0.43;;;;;;;12.55;100.00;93297.00;5008765;28;20394;-61
2023/08/06 08:02:13;;;;;;;1.50;0.53;;;;;;;12.58;100.00;93294.13;5006987;28;20487;-61
2023/08/06 08:04:39;;;;;;;2.28;0.60;;;;;;;12.26;100.00;93302.66;5008694;28;20046;-61
2023/08/06 08:07:07;;;;;;;1.50;0.60;;;;;;;12.16;100.00;93299.03;5007651;28;20048;-68
2023/08/06 08:09:35;;;;;;;1.50;0.60;;;;;;;12.20;100.00;93294.19;5009085;28;20038;-70
2023/08/06 08:12:02;;;;;;;1.40;0.60;;;;;;;12.26;100.00;93288.91;4997263;28;20427;-62
2023/08/06 08:14:35;;;;;;;1.30;0.50;;;;;;;12.04;100.00;93297.06;5001864;28;20072;-61
2023/08/06 08:17:02;;;;;;;1.50;0.35;;;;;;;12.25;100.00;93293.63;4988828;28;20306;-65
2023/08/06 08:19:30;;;;;;;1.23;0.40;;;;;;;12.33;100.00;93292.19;4989342;28;20050;-62
2023/08/06 08:21:57;;;;;;;1.63;0.50;;;;;;;12.38;100.00;93291.63;4988908;28;20046;-62
2023/08/06 08:24:24;;;;;;;2.03;0.65;;;;;;;12.47;100.00;93295.69;4988061;28;20046;-65
2023/08/06 08:26:51;;;;;;;2.17;0.70;;;;;;;12.31;100.00;93299.34;4988842;28;20053;-60
2023/08/06 08:29:22;;;;;;;1.77;0.70;;;;;;;12.42;100.00;93297.03;4989241;28;20376;-60
2023/08/06 08:31:50;;;;;;;3.00;0.70;;;;;;;12.48;100.00;93302.75;4989057;28;20060;-61
2023/08/06 08:34:17;;;;;;;1.50;0.70;;;;;;;12.56;100.00;93293.81;4988941;28;20054;-66
2023/08/06 08:36:47;;;;;;;1.70;0.70;;;;;;;12.29;100.00;93294.28;5002164;28;20487;-61
2023/08/06 08:39:14;;;;;;;1.70;0.60;;;;;;;12.20;100.00;93313.44;4989204;28;20050;-65
2023/08/06 08:41:42;;;;;;;1.48;0.70;;;;;;;12.28;100.00;93306.50;4988845;28;20038;-61
2023/08/06 08:44:12;;;;;;;1.30;0.50;;;;;;;12.51;100.00;93307.34;4989002;28;20049;-60
2023/08/06 08:46:41;;;;;;;1.30;0.50;;;;;;;12.66;100.00;93304.91;4988910;28;20049;-66
2023/08/06 08:49:08;;;;;;;1.60;0.60;;;;;;;12.99;100.00;93314.38;4988826;28;20046;-62
2023/08/06 08:51:36;;;;;;;3.60;0.60;;;;;;;13.29;100.00;93311.41;4988628;28;20391;-60
2023/08/06 08:54:04;;;;;;;1.33;0.50;;;;;;;13.45;100.00;93316.00;4989330;28;20053;-61
2023/08/06 08:56:31;;;;;;;1.30;0.40;;;;;;;13.53;100.00;93314.53;4988802;28;20061;-61
2023/08/06 08:58:59;;;;;;;2.05;0.50;;;;;;;14.29;100.00;93315.25;4988724;28;20381;-61
2023/08/06 09:01:28;;;;;;;1.30;0.40;;;;;;;14.81;100.00;93310.03;4988570;28;20085;-66
2023/08/06 09:03:56;;;;;;;1.40;0.50;;;;;;;16.57;100.00;93322.41;4988479;28;20050;-62
2023/08/06 09:06:27;;;;;;;1.70;0.57;;;;;;;17.17;100.00;93315.19;4988691;28;20050;-62
2023/08/06 09:09:09;;;;;;;1.52;0.45;;;;;;;17.23;100.00;93309.75;4988647;28;20488;-62
2023/08/06 09:11:43;;;;;;;1.45;0.40;;;;;;;17.73;100.00;93315.50;4977069;28;20042;-61
2023/08/06 09:14:11;;;;;;;1.65;0.40;;;;;;;16.86;100.00;93321.84;4976066;28;20072;-61
2023/08/06 09:16:38;;;;;;;1.73;0.50;;;;;;;15.59;100.00;93328.03;4992544;28;20042;-61
2023/08/06 09:19:12;;;;;;;2.20;0.60;;;;;;;15.29;100.00;93336.06;4992644;28;20125;-61
2023/08/06 09:21:40;;;;;;;1.50;0.40;;;;;;;14.49;100.00;93346.00;4992336;28;20094;-61
2023/08/06 09:24:10;;;;;;;1.40;0.57;;;;;;;14.61;100.00;93346.34;4992323;28;20498;-68
2023/08/06 09:26:39;;;;;;;1.30;0.55;;;;;;;14.57;100.00;93358.31;4992061;28;20046;-65
2023/08/06 09:29:07;;;;;;;1.60;0.50;;;;;;;14.57;100.00;93341.00;4992392;28;20045;-61
2023/08/06 09:31:42;;;;;;;1.60;0.60;;;;;;;14.05;100.00;93357.13;4992822;28;20054;-62
2023/08/06 09:34:19;;;;;;;1.50;0.50;;;;;;;13.70;100.00;93348.97;4998109;28;21747;-71
2023/08/06 09:36:48;;;;;;;1.80;0.65;;;;;;;13.74;100.00;93355.13;4991870;28;20047;-61
2023/08/06 09:39:20;;;;;;;1.70;0.63;;;;;;;14.15;100.00;93347.69;4992253;28;20116;-64
2023/08/06 09:41:50;;;;;;;1.43;0.57;;;;;;;13.99;100.00;93339.63;4991454;28;20077;-61
2023/08/06 09:44:19;;;;;;;1.60;0.63;;;;;;;14.44;100.00;93348.56;4991816;28;20052;-61
2023/08/06 09:46:53;;;;;;;1.70;0.70;;;;;;;14.53;100.00;93356.91;4991742;28;20045;-61
2023/08/06 09:49:28;;;;;;;1.40;0.50;;;;;;;15.11;100.00;93349.84;4991586;28;20042;-61
2023/08/06 09:51:58;;;;;;;1.30;0.47;;;;;;;15.29;100.00;93347.13;4991564;28;20072;-62
2023/08/06 09:54:26;;;;;;;1.97;0.60;;;;;;;15.11;100.00;93347.06;4991776;28;20042;-68
2023/08/06 09:56:54;;;;;;;1.40;0.50;;;;;;;15.89;100.00;93342.16;4991375;28;20043;-61
2023/08/06 09:59:25;;;;;;;1.50;0.50;;;;;;;15.49;100.00;93337.56;4991488;28;20038;-64
2023/08/06 10:01:54;;;;;;;1.40;0.50;;;;;;;15.67;100.00;93353.38;4991523;28;20171;-61
2023/08/06 10:04:21;;;;;;;1.65;0.65;;;;;;;16.11;100.00;93351.03;4991521;28;20406;-62
2023/08/06 10:06:52;;;;;;;1.30;0.43;;;;;;;15.79;100.00;93349.72;4979126;28;20049;-62
2023/08/06 10:09:20;;;;;;;1.83;0.60;;;;;;;15.48;100.00;93364.47;4991407;28;20060;-62
2023/08/06 10:11:52;;;;;;;1.27;0.40;;;;;;;15.83;100.00;93355.84;4992778;28;20127;-61
2023/08/06 10:14:26;;;;;;;1.30;0.50;;;;;;;16.15;100.00;93351.63;4977863;28;20073;-61
2023/08/06 10:16:54;;;;;;;1.90;0.63;;;;;;;17.04;100.00;93350.69;4990994;28;20106;-63
2023/08/06 10:19:21;;;;;;;1.30;0.50;;;;;;;17.00;100.00;93350.84;4989999;28;20363;-65
2023/08/06 10:22:11;;;;;;;1.30;0.50;;;;;;;16.15;100.00;93357.19;4991199;28;20443;-65
2023/08/06 10:24:54;;;;;;;1.30;0.43;;;;;;;15.77;100.00;93357.72;4996376;28;20313;-61
2023/08/06 10:27:41;;;;;;;2.05;0.50;;;;;;;15.63;100.00;93367.38;5011084;28;20127;-62
2023/08/06 10:30:29;;;;;;;1.40;0.45;;;;;;;15.83;100.00;93363.41;5010730;28;20096;-63
2023/08/06 10:33:00;;;;;;;1.40;0.50;;;;;;;15.97;100.00;93371.81;5011046;28;20318;-62
2023/08/06 10:35:40;;;;;;;1.50;0.60;;;;;;;15.51;100.00;93358.03;5010689;28;20410;-66
2023/08/06 10:38:22;;;;;;;1.50;0.60;;;;;;;16.12;100.00;93374.72;5010181;28;20457;-62
2023/08/06 10:41:00;;;;;;;1.42;0.60;;;;;;;16.40;100.00;93377.44;5008760;28;20056;-62
2023/08/06 10:43:29;;;;;;;1.52;0.60;;;;;;;16.69;100.00;93379.63;5010931;28;20099;-62
2023/08/06 10:45:58;;;;;;;1.90;0.70;;;;;;;17.64;100.00;93371.06;5005589;28;20038;-64
2023/08/06 10:48:36;;;;;;;1.50;0.60;;;;;;;17.65;100.00;93367.06;5010428;28;20042;-62
2023/08/06 10:51:07;;;;;;;1.67;0.60;;;;;;;17.90;100.00;93363.78;5009504;28;20056;-62
2023/08/06 10:53:34;;;;;;;1.75;0.82;;;;;;;18.63;100.00;93380.16;5010275;28;20130;-68
2023/08/06 10:56:22;;;;;;;2.05;0.55;;;;;;;17.46;100.00;93377.53;5009479;28;20042;-62
2023/08/06 10:58:51;;;;;;;1.40;0.60;;;;;;;17.50;100.00;93369.78;5010101;28;20058;-62
2023/08/06 11:01:17;;;;;;;1.67;0.60;;;;;;;17.03;100.00;93372.09;5009947;28;20045;-68
2023/08/06 11:03:46;;;;;;;1.80;0.60;;;;;;;17.35;100.00;93362.19;5009188;28;20046;-64
2023/08/06 11:06:21;;;;;;;2.20;0.73;;;;;;;17.35;100.00;93372.53;5001933;28;20062;-61
2023/08/06 11:08:53;;;;;;;2.05;0.88;;;;;;;16.88;100.00;93374.81;5009450;28;20419;-64
2023/08/06 11:11:22;;;;;;;1.50;0.60;;;;;;;16.12;100.00;93365.66;5009646;28;20087;-66
2023/08/06 11:13:50;;;;;;;1.88;0.80;;;;;;;16.39;100.00;93384.19;5009585;28;20053;-62
2023/08/06 11:16:19;;;;;;;1.55;0.50;;;;;;;16.17;100.00;93376.09;5010090;28;20511;-62
2023/08/06 11:18:47;;;;;;;1.60;0.47;;;;;;;15.67;100.00;93387.34;5009518;28;20136;-61
2023/08/06 11:21:14;;;;;;;1.60;0.60;;;;;;;16.38;100.00;93399.28;5009980;28;20053;-64
2023/08/06 11:23:41;;;;;;;1.70;0.70;;;;;;;17.02;100.00;93381.63;5009297;28;20045;-68
2023/08/06 11:26:08;;;;;;;1.40;0.50;;;;;;;16.87;100.00;93386.34;5009619;28;20076;-61
2023/08/06 11:28:35;;;;;;;1.42;0.60;;;;;;;16.52;100.00;93383.97;5007761;28;20099;-65
2023/08/06 11:31:02;;;;;;;2.10;0.80;;;;;;;15.90;100.00;93391.53;5008607;28;20038;-61